createdAt,value
2018-07-23T00:00:18.246Z,13.17
2018-07-23T00:02:46.414Z,14.53
2018-07-23T00:05:14.575Z,12.70
2018-07-23T00:07:42.738Z,13.00
2018-07-23T00:10:10.954Z,13.30
2018-07-23T00:12:39.214Z,12.70
2018-07-23T00:15:07.578Z,13.47
2018-07-23T00:17:35.770Z,12.33
2018-07-23T00:20:04.018Z,13.20
2018-07-23T00:22:32.150Z,12.27
2018-07-23T00:25:00.293Z,13.70
2018-07-23T00:27:28.450Z,14.53
2018-07-23T00:29:56.630Z,15.13
2018-07-23T00:32:24.774Z,13.97
2018-07-23T00:34:52.905Z,15.50
2018-07-23T00:37:21.037Z,14.10
2018-07-23T00:39:49.185Z,14.23
2018-07-23T00:42:17.309Z,14.73
2018-07-23T00:44:45.445Z,14.67
2018-07-23T00:47:13.623Z,12.93
2018-07-23T00:49:41.794Z,13.90
2018-07-23T00:52:09.985Z,14.90
2018-07-23T00:54:38.153Z,14.50
2018-07-23T00:57:06.330Z,13.33
2018-07-23T00:59:34.517Z,14.43
2018-07-23T01:02:02.668Z,14.33
2018-07-23T01:04:30.795Z,15.43
2018-07-23T01:06:59.013Z,15.50
2018-07-23T01:09:27.142Z,14.80
2018-07-23T01:11:55.349Z,15.47
2018-07-23T01:14:23.477Z,14.67
2018-07-23T01:16:51.661Z,13.57
2018-07-23T01:19:19.781Z,13.40
2018-07-23T01:21:47.914Z,14.33
2018-07-23T01:24:16.045Z,15.53
2018-07-23T01:26:44.189Z,16.07
2018-07-23T01:29:12.329Z,15.07
2018-07-23T01:31:40.478Z,15.37
2018-07-23T01:34:11.679Z,15.17
2018-07-23T01:36:39.830Z,16.23
2018-07-23T01:39:08.773Z,16.37
2018-07-23T01:41:36.925Z,15.53
2018-07-23T01:44:05.165Z,16.77
2018-07-23T01:46:33.432Z,17.00
2018-07-23T01:49:01.574Z,18.37
2018-07-23T01:51:29.796Z,17.90
2018-07-23T01:53:57.930Z,18.80
2018-07-23T01:56:26.092Z,18.23
2018-07-23T01:58:54.237Z,18.27
2018-07-23T02:01:22.383Z,19.43
2018-07-23T02:03:50.523Z,16.93
2018-07-23T02:06:18.674Z,17.87
2018-07-23T02:08:46.802Z,17.53
2018-07-23T02:11:14.960Z,16.97
2018-07-23T02:13:43.095Z,17.50
2018-07-23T02:16:11.218Z,17.03
2018-07-23T02:18:39.355Z,16.33
2018-07-23T02:21:07.478Z,16.47
2018-07-23T02:23:35.622Z,16.87
2018-07-23T02:26:03.761Z,17.03
2018-07-23T02:28:31.902Z,17.07
2018-07-23T02:31:00.047Z,15.57
2018-07-23T02:33:27.961Z,16.43
2018-07-23T02:35:56.111Z,16.60
2018-07-23T02:38:24.238Z,15.60
2018-07-23T02:40:52.378Z,16.70
2018-07-23T02:43:20.520Z,17.03
2018-07-23T02:45:48.422Z,16.90
2018-07-23T02:48:16.557Z,17.30
2018-07-23T02:50:44.694Z,18.37
2018-07-23T02:53:12.837Z,18.53
2018-07-23T02:55:40.982Z,18.87
2018-07-23T02:58:09.159Z,19.37
2018-07-23T03:00:37.314Z,20.40
2018-07-23T03:03:05.553Z,19.60
2018-07-23T03:05:33.715Z,21.03
2018-07-23T03:08:01.977Z,19.33
2018-07-23T03:10:30.126Z,19.90
2018-07-23T03:12:58.309Z,19.60
2018-07-23T03:15:26.505Z,19.67
2018-07-23T03:17:54.950Z,20.60
2018-07-23T03:20:23.154Z,21.10
2018-07-23T03:22:51.318Z,21.97
2018-07-23T03:25:19.490Z,20.67
2018-07-23T03:27:47.687Z,20.63
2018-07-23T03:30:15.874Z,20.93
2018-07-23T03:32:44.018Z,19.73
2018-07-23T03:35:12.311Z,20.97
2018-07-23T03:37:40.509Z,21.33
2018-07-23T03:40:08.693Z,21.07
2018-07-23T03:42:36.905Z,22.27
2018-07-23T03:45:05.505Z,20.37
2018-07-23T03:47:33.657Z,19.67
2018-07-23T03:50:01.808Z,22.87
2018-07-23T03:52:29.947Z,23.73
2018-07-23T03:54:58.108Z,25.13
2018-07-23T03:57:26.252Z,23.57
2018-07-23T03:59:54.385Z,23.40
2018-07-23T04:02:22.546Z,21.47
2018-07-23T04:04:50.998Z,21.03
2018-07-23T04:07:19.139Z,21.63
2018-07-23T04:09:47.321Z,19.37
2018-07-23T04:12:15.633Z,21.30
2018-07-23T04:14:43.781Z,19.80
2018-07-23T04:17:11.961Z,21.30
2018-07-23T04:19:40.141Z,20.20
2018-07-23T04:22:08.266Z,19.70
2018-07-23T04:24:36.406Z,19.47
2018-07-23T04:27:04.550Z,19.00
2018-07-23T04:29:32.705Z,20.83
2018-07-23T04:32:00.941Z,19.17
2018-07-23T04:34:29.100Z,19.73
2018-07-23T04:36:57.231Z,19.17
2018-07-23T04:39:25.370Z,19.77
2018-07-23T04:41:53.502Z,20.03
2018-07-23T04:44:21.669Z,19.63
2018-07-23T04:46:49.592Z,19.87
2018-07-23T04:49:17.783Z,19.40
2018-07-23T04:51:45.994Z,19.30
2018-07-23T04:54:14.156Z,16.90
2018-07-23T04:56:42.104Z,17.03
2018-07-23T04:59:10.225Z,18.27
2018-07-23T05:01:38.363Z,18.10
2018-07-23T05:04:06.530Z,17.03
2018-07-23T05:06:34.673Z,17.67
2018-07-23T05:09:02.826Z,18.63
2018-07-23T05:11:31.036Z,18.30
2018-07-23T05:13:59.253Z,18.03
2018-07-23T05:16:27.446Z,18.30
2018-07-23T05:18:55.723Z,18.83
2018-07-23T05:21:23.963Z,18.80
2018-07-23T05:23:52.185Z,17.57
2018-07-23T05:26:20.406Z,19.37
2018-07-23T05:28:48.564Z,18.60
2018-07-23T05:31:16.811Z,20.20
2018-07-23T05:33:45.052Z,19.90
2018-07-23T05:36:13.052Z,19.10
2018-07-23T05:38:41.221Z,19.70
2018-07-23T05:41:09.338Z,19.80
2018-07-23T05:43:37.473Z,21.07
2018-07-23T05:46:05.734Z,20.07
2018-07-23T05:48:33.973Z,20.07
2018-07-23T05:51:02.115Z,19.87
2018-07-23T05:53:30.316Z,20.83
2018-07-23T05:55:58.485Z,23.73
2018-07-23T05:58:26.670Z,19.53
2018-07-23T06:00:54.837Z,20.00
2018-07-23T06:03:23.119Z,20.60
2018-07-23T06:05:51.369Z,21.83
2018-07-23T06:08:19.566Z,21.27
2018-07-23T06:10:47.790Z,20.90
2018-07-23T06:13:15.997Z,21.63
2018-07-23T06:15:44.081Z,20.97
2018-07-23T06:18:12.254Z,21.80
2018-07-23T06:20:40.421Z,21.93
2018-07-23T06:23:08.582Z,22.40
2018-07-23T06:25:36.857Z,22.53
2018-07-23T06:28:05.225Z,23.47
2018-07-23T06:30:33.346Z,25.07
2018-07-23T06:33:01.496Z,26.50
2018-07-23T06:35:29.659Z,28.87
2018-07-23T06:37:57.854Z,25.17
2018-07-23T06:40:25.993Z,26.73
2018-07-23T06:42:54.496Z,26.67
2018-07-23T06:45:22.677Z,27.00
2018-07-23T06:47:51.046Z,25.73
2018-07-23T06:50:19.330Z,24.50
2018-07-23T06:52:47.498Z,26.07
2018-07-23T06:55:15.681Z,25.93
2018-07-23T06:57:43.887Z,25.27
2018-07-23T07:00:12.354Z,24.20
2018-07-23T07:02:40.523Z,23.53
2018-07-23T07:05:08.682Z,23.27
2018-07-23T07:07:36.919Z,23.43
2018-07-23T07:10:05.700Z,24.60
2018-07-23T07:12:33.935Z,23.17
2018-07-23T07:15:02.087Z,22.80
2018-07-23T07:17:30.246Z,22.70
2018-07-23T07:19:58.466Z,23.67
2018-07-23T07:22:26.557Z,23.00
2018-07-23T07:24:54.725Z,22.60
2018-07-23T07:27:22.886Z,23.57
2018-07-23T07:29:51.071Z,23.00
2018-07-23T07:32:19.239Z,22.07
2018-07-23T07:34:47.402Z,21.57
2018-07-23T07:37:15.565Z,23.90
2018-07-23T07:39:43.722Z,23.27
2018-07-23T07:42:11.938Z,22.53
2018-07-23T07:44:41.113Z,23.33
2018-07-23T07:47:09.254Z,22.53
2018-07-23T07:49:37.418Z,22.63
2018-07-23T07:52:05.570Z,22.83
2018-07-23T07:54:33.730Z,21.53
2018-07-23T07:57:01.638Z,21.57
2018-07-23T07:59:29.801Z,22.30
2018-07-23T08:01:57.941Z,21.47
2018-07-23T08:04:26.133Z,21.90
2018-07-23T08:06:54.581Z,22.23
2018-07-23T08:09:22.885Z,22.13
2018-07-23T08:11:51.034Z,21.57
2018-07-23T08:14:19.165Z,21.53
2018-07-23T08:16:47.394Z,22.07
2018-07-23T08:19:15.572Z,22.80
2018-07-23T08:21:43.716Z,22.90
2018-07-23T08:24:11.909Z,22.83
2018-07-23T08:26:40.109Z,21.93
2018-07-23T08:29:08.255Z,24.77
2018-07-23T08:31:36.443Z,24.30
2018-07-23T08:34:04.542Z,23.93
2018-07-23T08:36:32.695Z,22.60
2018-07-23T08:39:01.247Z,23.30
2018-07-23T08:41:29.369Z,21.43
2018-07-23T08:43:57.505Z,20.57
2018-07-23T08:46:25.786Z,21.73
2018-07-23T08:48:53.987Z,20.50
2018-07-23T08:51:22.171Z,21.80
2018-07-23T08:53:50.252Z,20.90
2018-07-23T08:56:18.395Z,20.90
2018-07-23T08:58:46.645Z,20.03
2018-07-23T09:01:14.817Z,20.53
2018-07-23T09:03:42.961Z,21.23
2018-07-23T09:06:11.313Z,19.90
2018-07-23T09:08:39.638Z,18.07
2018-07-23T09:11:07.839Z,19.07
2018-07-23T09:13:35.980Z,16.90
2018-07-23T09:16:04.289Z,16.70
2018-07-23T09:18:32.529Z,18.73
2018-07-23T09:21:00.713Z,17.60
2018-07-23T09:23:28.879Z,18.07
2018-07-23T09:25:57.102Z,16.90
2018-07-23T09:28:25.266Z,16.50
2018-07-23T09:30:54.725Z,17.00
2018-07-23T09:33:23.962Z,16.47
2018-07-23T09:35:52.850Z,16.50
2018-07-23T09:38:22.049Z,16.70
2018-07-23T09:40:50.434Z,16.57
2018-07-23T09:43:18.701Z,16.03
2018-07-23T09:45:46.880Z,16.87
2018-07-23T09:48:15.103Z,16.53
2018-07-23T09:50:43.270Z,16.90
2018-07-23T09:53:11.414Z,16.07
2018-07-23T09:55:39.583Z,16.03
2018-07-23T09:58:07.754Z,16.50
2018-07-23T10:00:41.391Z,16.80
2018-07-23T10:03:09.563Z,16.17
2018-07-23T10:05:37.759Z,17.23
2018-07-23T10:08:05.926Z,17.73
2018-07-23T10:10:34.146Z,16.07
2018-07-23T10:13:02.282Z,14.33
2018-07-23T10:15:30.444Z,13.77
2018-07-23T10:17:58.587Z,14.00
2018-07-23T10:20:26.861Z,14.27
2018-07-23T10:22:55.017Z,14.53
2018-07-23T10:25:23.224Z,14.60
2018-07-23T10:27:51.373Z,15.70
2018-07-23T10:30:19.526Z,14.73
2018-07-23T10:32:47.668Z,13.90
2018-07-23T10:35:15.894Z,12.60
2018-07-23T10:37:44.009Z,12.67
2018-07-23T10:40:12.126Z,14.03
2018-07-23T10:42:40.263Z,14.67
2018-07-23T10:45:08.513Z,14.27
2018-07-23T10:47:36.758Z,12.83
2018-07-23T10:50:04.905Z,13.73
2018-07-23T10:52:33.063Z,13.67
2018-07-23T10:55:01.203Z,14.50
2018-07-23T10:57:29.372Z,13.97
2018-07-23T10:59:57.623Z,13.77
2018-07-23T11:02:25.786Z,14.43
2018-07-23T11:04:53.978Z,14.17
2018-07-23T11:07:22.417Z,14.63
2018-07-23T11:09:50.527Z,15.20
2018-07-23T11:12:18.667Z,14.10
2018-07-23T11:14:46.821Z,14.03
2018-07-23T11:17:15.010Z,12.30
2018-07-23T11:19:43.221Z,13.10
2018-07-23T11:22:11.389Z,12.13
2018-07-23T11:24:45.443Z,11.43
2018-07-23T11:27:07.740Z,11.20
2018-07-23T11:29:35.907Z,11.50
2018-07-23T11:32:04.085Z,13.37
2018-07-23T11:34:32.233Z,16.00
2018-07-23T11:37:00.394Z,16.13
2018-07-23T11:39:28.620Z,15.63
2018-07-23T11:41:56.761Z,16.60
2018-07-23T11:44:24.909Z,13.60
2018-07-23T11:46:53.074Z,15.10
2018-07-23T11:49:21.246Z,14.13
2018-07-23T11:51:49.394Z,13.93
2018-07-23T11:56:59.533Z,14.20
2018-07-23T11:59:27.670Z,13.67
2018-07-23T12:01:55.878Z,11.83
2018-07-23T12:04:25.221Z,11.57
2018-07-23T12:06:53.321Z,13.20
2018-07-23T12:09:21.477Z,13.43
2018-07-23T12:11:49.674Z,14.10
2018-07-23T12:14:17.829Z,11.90
2018-07-23T12:16:45.982Z,13.57
2018-07-23T12:19:14.134Z,13.03
2018-07-23T12:21:42.281Z,13.83
2018-07-23T12:24:10.491Z,11.47
2018-07-23T12:26:38.650Z,11.57
2018-07-23T12:29:06.885Z,11.43
2018-07-23T12:31:35.070Z,11.67
2018-07-23T12:34:03.238Z,12.00
2018-07-23T12:36:31.434Z,12.67
2018-07-23T12:38:59.609Z,9.97
2018-07-23T12:41:27.910Z,10.30
2018-07-23T12:43:56.074Z,12.27
2018-07-23T12:46:24.266Z,12.00
2018-07-23T12:48:52.230Z,12.43
2018-07-23T12:51:20.377Z,11.37
2018-07-23T12:53:48.570Z,10.73
2018-07-23T12:56:16.709Z,10.67
2018-07-23T12:58:44.880Z,11.17
2018-07-23T13:01:13.032Z,10.90
2018-07-23T13:03:41.185Z,10.60
2018-07-23T13:06:09.358Z,10.47
2018-07-23T13:08:37.514Z,11.10
2018-07-23T13:11:05.670Z,10.17
2018-07-23T13:13:33.826Z,10.27
2018-07-23T13:16:01.999Z,10.27
2018-07-23T13:18:31.182Z,9.73
2018-07-23T13:20:59.329Z,10.47
2018-07-23T13:23:27.514Z,9.87
2018-07-23T13:25:55.702Z,9.33
2018-07-23T13:28:23.929Z,8.90
2018-07-23T13:30:52.073Z,9.00
2018-07-23T13:33:20.262Z,8.97
2018-07-23T13:35:48.418Z,8.87
2018-07-23T13:38:16.771Z,9.00
2018-07-23T13:40:44.887Z,8.83
2018-07-23T13:43:13.025Z,8.33
2018-07-23T13:45:41.177Z,8.70
2018-07-23T13:48:09.329Z,9.23
2018-07-23T13:50:37.503Z,8.10
2018-07-23T13:53:05.640Z,8.27
2018-07-23T13:55:33.835Z,8.67
2018-07-23T13:58:02.097Z,8.57
2018-07-23T14:00:30.317Z,8.93
2018-07-23T14:02:58.459Z,8.90
2018-07-23T14:05:26.626Z,8.60
2018-07-23T14:07:54.766Z,8.20
2018-07-23T14:10:22.938Z,8.87
2018-07-23T14:12:51.103Z,8.70
2018-07-23T14:15:19.270Z,9.03
2018-07-23T14:17:47.414Z,8.73
2018-07-23T14:20:15.542Z,8.40
2018-07-23T14:22:43.669Z,8.77
2018-07-23T14:25:11.813Z,8.70
2018-07-23T14:27:40.018Z,8.53
2018-07-23T14:30:08.200Z,8.43
2018-07-23T14:32:36.298Z,7.70
2018-07-23T14:35:04.487Z,8.70
2018-07-23T14:37:33.001Z,9.00
2018-07-23T14:40:01.254Z,7.93
2018-07-23T14:42:29.383Z,8.70
2018-07-23T14:44:57.590Z,8.50
2018-07-23T14:47:25.792Z,8.17
2018-07-23T14:49:53.936Z,8.70
2018-07-23T14:52:22.181Z,8.73
2018-07-23T14:54:50.351Z,8.27
2018-07-23T14:57:18.559Z,8.20
2018-07-23T14:59:46.714Z,8.10
2018-07-23T15:02:14.973Z,8.13
2018-07-23T15:04:43.115Z,8.20
2018-07-23T15:07:11.339Z,8.10
2018-07-23T15:09:39.477Z,8.60
2018-07-23T15:12:07.975Z,8.17
2018-07-23T15:14:36.153Z,8.40
2018-07-23T15:17:08.414Z,8.40
2018-07-23T15:19:36.597Z,8.63
2018-07-23T15:22:05.663Z,8.50
2018-07-23T15:24:33.787Z,8.97
2018-07-23T15:27:02.050Z,9.13
2018-07-23T15:29:30.218Z,8.80
2018-07-23T15:31:58.398Z,8.20
2018-07-23T15:34:26.625Z,9.17
2018-07-23T15:36:54.813Z,8.63
2018-07-23T15:39:22.961Z,9.13
2018-07-23T15:41:51.135Z,8.97
2018-07-23T15:44:19.426Z,8.87
2018-07-23T15:46:47.446Z,8.90
2018-07-23T15:49:15.582Z,9.23
2018-07-23T15:51:43.744Z,8.37
2018-07-23T15:54:12.991Z,8.90
2018-07-23T15:56:41.241Z,9.70
2018-07-23T15:59:09.456Z,8.97
2018-07-23T16:01:37.610Z,8.77
2018-07-23T16:04:05.773Z,8.80
2018-07-23T16:06:33.919Z,8.73
2018-07-23T16:09:02.255Z,9.20
2018-07-23T16:11:30.559Z,9.47
2018-07-23T16:13:58.702Z,9.17
2018-07-23T16:16:26.958Z,10.20
2018-07-23T16:18:55.161Z,10.23
2018-07-23T16:21:23.354Z,10.60
2018-07-23T16:23:51.538Z,10.20
2018-07-23T16:26:19.837Z,9.97
2018-07-23T16:28:47.972Z,10.73
2018-07-23T16:31:16.133Z,9.93
2018-07-23T16:33:44.302Z,10.00
2018-07-23T16:36:12.624Z,9.60
2018-07-23T16:38:40.874Z,10.43
2018-07-23T16:41:09.041Z,9.63
2018-07-23T16:43:37.229Z,9.10
2018-07-23T16:46:05.465Z,9.87
2018-07-23T16:48:33.673Z,9.50
2018-07-23T16:51:01.914Z,10.47
2018-07-23T16:53:30.377Z,9.77
2018-07-23T16:55:59.640Z,10.90
2018-07-23T16:58:27.862Z,10.20
2018-07-23T17:00:55.857Z,10.53
2018-07-23T17:03:24.156Z,10.73
2018-07-23T17:05:52.483Z,10.33
2018-07-23T17:08:20.685Z,10.83
2018-07-23T17:10:48.968Z,10.17
2018-07-23T17:13:17.238Z,10.60
2018-07-23T17:15:45.560Z,9.67
2018-07-23T17:18:13.764Z,10.33
2018-07-23T17:20:41.933Z,10.10
2018-07-23T17:23:10.152Z,10.43
2018-07-23T17:25:38.463Z,10.90
2018-07-23T17:28:06.693Z,10.63
2018-07-23T17:30:34.861Z,10.97
2018-07-23T17:33:03.095Z,10.80
2018-07-23T17:35:31.442Z,10.43
2018-07-23T17:37:59.598Z,11.43
2018-07-23T17:40:27.856Z,10.90
2018-07-23T17:42:56.157Z,10.80
2018-07-23T17:45:24.397Z,12.23
2018-07-23T17:47:53.637Z,11.87
2018-07-23T17:50:21.860Z,12.23
2018-07-23T17:52:50.002Z,12.43
2018-07-23T17:55:18.225Z,11.83
2018-07-23T17:57:46.387Z,11.73
2018-07-23T18:00:14.561Z,11.80
2018-07-23T18:02:42.777Z,11.73
2018-07-23T18:05:11.203Z,12.47
2018-07-23T18:07:39.460Z,13.00
2018-07-23T18:10:07.703Z,12.70
2018-07-23T18:12:35.918Z,12.93
2018-07-23T18:15:04.473Z,12.70
2018-07-23T18:17:32.707Z,12.60
2018-07-23T18:20:00.858Z,12.73
2018-07-23T18:22:29.038Z,13.20
2018-07-23T18:24:57.217Z,13.20
2018-07-23T18:27:25.385Z,12.83
2018-07-23T18:30:56.570Z,13.00
2018-07-23T18:33:24.720Z,12.90
2018-07-23T18:35:52.872Z,13.03
2018-07-23T18:38:21.175Z,13.60
2018-07-23T18:40:49.242Z,14.23
2018-07-23T18:43:17.409Z,15.00
2018-07-23T18:45:45.678Z,14.77
2018-07-23T18:48:29.098Z,14.77
2018-07-23T18:50:57.245Z,15.10
2018-07-23T18:53:25.456Z,15.33
2018-07-23T18:55:53.638Z,15.43
2018-07-23T18:58:22.097Z,15.13
2018-07-23T19:00:50.299Z,15.17
2018-07-23T19:03:18.457Z,14.83
2018-07-23T19:05:47.077Z,14.27
2018-07-23T19:08:15.328Z,14.57
2018-07-23T19:10:43.501Z,14.37
2018-07-23T19:13:11.681Z,14.93
2018-07-23T19:15:39.854Z,15.03
2018-07-23T19:18:08.122Z,14.00
2018-07-23T19:20:36.355Z,13.27
2018-07-23T19:23:04.616Z,13.30
2018-07-23T19:25:32.853Z,13.63
2018-07-23T19:28:01.012Z,14.67
2018-07-23T19:30:29.285Z,13.57
2018-07-23T19:32:57.715Z,13.33
2018-07-23T19:35:26.072Z,13.27
2018-07-23T19:37:54.225Z,13.63
2018-07-23T19:40:22.458Z,12.83
2018-07-23T19:42:50.682Z,14.50
2018-07-23T19:45:18.906Z,13.43
2018-07-23T19:47:47.168Z,15.03
2018-07-23T19:50:15.305Z,13.30
2018-07-23T19:52:43.566Z,15.00
2018-07-23T19:55:11.777Z,16.32
2018-07-23T19:57:40.082Z,15.80
2018-07-23T20:00:08.163Z,16.60
2018-07-23T20:02:36.398Z,16.97
2018-07-23T20:05:04.563Z,17.23
2018-07-23T20:07:32.749Z,18.57
2018-07-23T20:10:00.914Z,17.60
2018-07-23T20:12:29.078Z,17.67
2018-07-23T20:14:57.249Z,18.50
2018-07-23T20:17:25.490Z,19.90
2018-07-23T20:19:53.714Z,18.23
2018-07-23T20:22:21.885Z,18.07
2018-07-23T20:24:50.050Z,19.47
2018-07-23T20:27:18.198Z,19.60
2018-07-23T20:29:46.430Z,18.67
2018-07-23T20:32:14.681Z,18.53
2018-07-23T20:34:42.888Z,19.13
2018-07-23T20:37:11.191Z,19.53
2018-07-23T20:39:39.505Z,18.73
2018-07-23T20:42:07.670Z,19.93
2018-07-23T20:44:35.864Z,18.90
2018-07-23T20:47:04.038Z,18.77
2018-07-23T20:49:32.210Z,17.57
2018-07-23T20:52:00.378Z,18.80
2018-07-23T20:54:28.616Z,19.03
2018-07-23T20:56:56.932Z,18.50
2018-07-23T20:59:25.198Z,19.43
2018-07-23T21:01:53.431Z,19.63
2018-07-23T21:04:21.752Z,19.00
2018-07-23T21:06:50.030Z,19.20
2018-07-23T21:09:18.321Z,18.97
2018-07-23T21:11:46.598Z,19.03
2018-07-23T21:14:14.857Z,19.13
2018-07-23T21:16:43.230Z,19.80
2018-07-23T21:19:11.305Z,19.90
2018-07-23T21:21:39.579Z,19.87
2018-07-23T21:24:07.862Z,20.30
2018-07-23T21:26:36.226Z,19.93
2018-07-23T21:29:04.484Z,20.23
2018-07-23T21:31:32.770Z,21.00
2018-07-23T21:34:01.001Z,20.63
2018-07-23T21:36:29.194Z,20.50
2018-07-23T21:38:57.521Z,21.50
2018-07-23T21:41:25.887Z,20.33
2018-07-23T21:43:54.244Z,20.60
2018-07-23T21:46:22.458Z,20.23
2018-07-23T21:48:50.777Z,21.00
2018-07-23T21:51:19.116Z,20.93
2018-07-23T21:53:47.419Z,21.03
2018-07-23T21:56:15.775Z,21.97
2018-07-23T21:58:44.003Z,23.43
2018-07-23T22:01:12.205Z,21.97
2018-07-23T22:03:40.437Z,22.97
2018-07-23T22:06:08.626Z,21.90
2018-07-23T22:08:36.838Z,22.67
2018-07-23T22:11:05.285Z,22.40
2018-07-23T22:13:33.547Z,22.33
2018-07-23T22:16:01.799Z,22.03
2018-07-23T22:18:30.046Z,23.27
2018-07-23T22:20:58.205Z,21.67
2018-07-23T22:23:26.418Z,21.40
2018-07-23T22:25:54.813Z,20.93
2018-07-23T22:28:23.078Z,20.63
2018-07-23T22:30:51.325Z,19.27
2018-07-23T22:33:19.556Z,19.83
2018-07-23T22:35:47.869Z,19.43
2018-07-23T22:38:16.047Z,19.27
2018-07-23T22:40:44.291Z,19.77
2018-07-23T22:43:12.632Z,20.37
2018-07-23T22:45:40.896Z,21.17
2018-07-23T22:48:09.102Z,21.07
2018-07-23T22:50:37.330Z,21.17
2018-07-23T22:53:05.566Z,22.40
2018-07-23T22:55:34.044Z,20.20
2018-07-23T22:58:02.229Z,22.10
2018-07-23T23:00:30.392Z,22.17
2018-07-23T23:02:58.781Z,22.73
2018-07-23T23:05:26.993Z,23.03
2018-07-23T23:07:55.220Z,22.73
2018-07-23T23:10:23.493Z,22.20
2018-07-23T23:12:51.751Z,22.53
2018-07-23T23:15:19.941Z,22.07
2018-07-23T23:17:48.185Z,21.53
2018-07-23T23:20:16.490Z,21.83
2018-07-23T23:22:44.741Z,22.13
2018-07-23T23:25:12.901Z,23.23
2018-07-23T23:27:41.127Z,22.93
2018-07-23T23:30:09.311Z,22.17
2018-07-23T23:32:37.537Z,22.60
2018-07-23T23:35:05.912Z,22.67
2018-07-23T23:37:34.077Z,23.87
2018-07-23T23:40:02.254Z,24.77
2018-07-23T23:42:30.532Z,22.73
2018-07-23T23:44:58.673Z,24.20
2018-07-23T23:47:27.022Z,23.53
2018-07-23T23:49:55.146Z,23.50
2018-07-23T23:52:23.391Z,23.17
2018-07-23T23:54:51.598Z,24.83
2018-07-23T23:57:19.754Z,24.37
2018-07-23T23:59:47.995Z,22.73
